sensor_id;sensor_type;location;lat;lon;timestamp;P1;durP1;ratioP1;P2;durP2;ratioP2
18716;SDS011;9487;50.892;6.906;2023-02-15T00:00:28;34.00;;;24.80;;
18716;SDS011;9487;50.892;6.906;2023-02-15T00:02:56;34.83;;;24.37;;
18716;SDS011;9487;50.892;6.906;2023-02-15T00:05:23;32.87;;;23.87;;
18716;SDS011;9487;50.892;6.906;2023-02-15T00:07:49;33.03;;;24.70;;
18716;SDS011;9487;50.892;6.906;2023-02-15T00:10:16;36.60;;;25.40;;
18716;SDS011;9487;50.892;6.906;2023-02-15T00:12:43;37.13;;;25.60;;
18716;SDS011;9487;50.892;6.906;2023-02-15T00:15:10;35.83;;;25.90;;
18716;SDS011;9487;50.892;6.906;2023-02-15T00:17:38;37.27;;;26.43;;
18716;SDS011;9487;50.892;6.906;2023-02-15T00:20:06;35.50;;;25.40;;
18716;SDS011;9487;50.892;6.906;2023-02-15T00:22:34;38.03;;;26.00;;
18716;SDS011;9487;50.892;6.906;2023-02-15T00:25:00;40.17;;;25.97;;
18716;SDS011;9487;50.892;6.906;2023-02-15T00:27:27;35.57;;;25.23;;
18716;SDS011;9487;50.892;6.906;2023-02-15T00:29:54;34.57;;;24.50;;
18716;SDS011;9487;50.892;6.906;2023-02-15T00:32:21;35.53;;;25.40;;
18716;SDS011;9487;50.892;6.906;2023-02-15T00:34:48;35.50;;;24.27;;
18716;SDS011;9487;50.892;6.906;2023-02-15T00:37:16;35.97;;;25.57;;
18716;SDS011;9487;50.892;6.906;2023-02-15T00:39:42;34.00;;;23.90;;
18716;SDS011;9487;50.892;6.906;2023-02-15T00:42:09;35.87;;;25.07;;
18716;SDS011;9487;50.892;6.906;2023-02-15T00:44:36;35.23;;;25.37;;
18716;SDS011;9487;50.892;6.906;2023-02-15T00:47:03;34.90;;;24.40;;
18716;SDS011;9487;50.892;6.906;2023-02-15T00:49:30;33.17;;;24.30;;
18716;SDS011;9487;50.892;6.906;2023-02-15T00:51:56;35.37;;;24.60;;
18716;SDS011;9487;50.892;6.906;2023-02-15T00:54:24;33.90;;;23.70;;
18716;SDS011;9487;50.892;6.906;2023-02-15T00:56:51;33.17;;;24.57;;
18716;SDS011;9487;50.892;6.906;2023-02-15T00:59:18;34.03;;;25.27;;
18716;SDS011;9487;50.892;6.906;2023-02-15T01:01:45;31.33;;;23.50;;
18716;SDS011;9487;50.892;6.906;2023-02-15T01:04:11;35.63;;;25.57;;
18716;SDS011;9487;50.892;6.906;2023-02-15T01:06:38;36.00;;;25.07;;
18716;SDS011;9487;50.892;6.906;2023-02-15T01:09:05;35.30;;;25.80;;
18716;SDS011;9487;50.892;6.906;2023-02-15T01:11:33;34.80;;;24.70;;
18716;SDS011;9487;50.892;6.906;2023-02-15T01:14:00;35.30;;;24.77;;
18716;SDS011;9487;50.892;6.906;2023-02-15T01:16:28;35.03;;;24.40;;
18716;SDS011;9487;50.892;6.906;2023-02-15T01:18:55;37.47;;;26.33;;
18716;SDS011;9487;50.892;6.906;2023-02-15T01:21:23;37.53;;;25.83;;
18716;SDS011;9487;50.892;6.906;2023-02-15T01:23:51;35.37;;;25.27;;
18716;SDS011;9487;50.892;6.906;2023-02-15T01:26:18;36.23;;;25.50;;
18716;SDS011;9487;50.892;6.906;2023-02-15T01:28:46;35.93;;;25.23;;
18716;SDS011;9487;50.892;6.906;2023-02-15T01:31:13;36.43;;;24.43;;
18716;SDS011;9487;50.892;6.906;2023-02-15T01:33:42;36.37;;;25.33;;
18716;SDS011;9487;50.892;6.906;2023-02-15T01:36:09;37.60;;;25.17;;
18716;SDS011;9487;50.892;6.906;2023-02-15T01:38:36;36.37;;;25.97;;
18716;SDS011;9487;50.892;6.906;2023-02-15T01:41:04;35.30;;;24.47;;
18716;SDS011;9487;50.892;6.906;2023-02-15T01:43:50;33.10;;;23.63;;
18716;SDS011;9487;50.892;6.906;2023-02-15T01:46:20;32.23;;;22.63;;
18716;SDS011;9487;50.892;6.906;2023-02-15T01:48:53;34.90;;;25.10;;
18716;SDS011;9487;50.892;6.906;2023-02-15T01:51:23;35.73;;;24.30;;
18716;SDS011;9487;50.892;6.906;2023-02-15T01:53:55;34.60;;;24.47;;
18716;SDS011;9487;50.892;6.906;2023-02-15T01:56:27;37.27;;;24.70;;
18716;SDS011;9487;50.892;6.906;2023-02-15T01:58:58;35.83;;;24.40;;
18716;SDS011;9487;50.892;6.906;2023-02-15T02:01:28;34.87;;;23.87;;
18716;SDS011;9487;50.892;6.906;2023-02-15T02:03:56;33.47;;;24.17;;
18716;SDS011;9487;50.892;6.906;2023-02-15T02:06:28;35.93;;;23.53;;
18716;SDS011;9487;50.892;6.906;2023-02-15T02:08:56;33.33;;;23.33;;
18716;SDS011;9487;50.892;6.906;2023-02-15T02:11:23;32.03;;;22.93;;
18716;SDS011;9487;50.892;6.906;2023-02-15T02:13:50;35.73;;;24.17;;
18716;SDS011;9487;50.892;6.906;2023-02-15T02:16:22;36.50;;;24.57;;
18716;SDS011;9487;50.892;6.906;2023-02-15T02:18:58;34.17;;;23.27;;
18716;SDS011;9487;50.892;6.906;2023-02-15T02:21:48;34.93;;;23.27;;
18716;SDS011;9487;50.892;6.906;2023-02-15T02:24:40;36.00;;;25.23;;
18716;SDS011;9487;50.892;6.906;2023-02-15T02:27:38;33.63;;;23.13;;
18716;SDS011;9487;50.892;6.906;2023-02-15T02:30:20;34.57;;;24.13;;
18716;SDS011;9487;50.892;6.906;2023-02-15T02:36:14;37.23;;;24.10;;
18716;SDS011;9487;50.892;6.906;2023-02-15T02:38:49;38.00;;;24.07;;
18716;SDS011;9487;50.892;6.906;2023-02-15T02:41:26;36.27;;;23.77;;
18716;SDS011;9487;50.892;6.906;2023-02-15T02:43:59;37.37;;;24.50;;
18716;SDS011;9487;50.892;6.906;2023-02-15T02:46:34;36.17;;;23.63;;
18716;SDS011;9487;50.892;6.906;2023-02-15T02:49:06;35.70;;;23.67;;
18716;SDS011;9487;50.892;6.906;2023-02-15T02:51:33;35.70;;;24.67;;
18716;SDS011;9487;50.892;6.906;2023-02-15T02:54:00;37.90;;;24.23;;
18716;SDS011;9487;50.892;6.906;2023-02-15T02:56:34;35.93;;;24.00;;
18716;SDS011;9487;50.892;6.906;2023-02-15T02:59:06;34.73;;;23.50;;
18716;SDS011;9487;50.892;6.906;2023-02-15T03:01:38;34.17;;;24.00;;
18716;SDS011;9487;50.892;6.906;2023-02-15T03:04:09;35.17;;;23.40;;
18716;SDS011;9487;50.892;6.906;2023-02-15T03:06:39;37.83;;;25.77;;
18716;SDS011;9487;50.892;6.906;2023-02-15T03:09:12;35.80;;;23.43;;
18716;SDS011;9487;50.892;6.906;2023-02-15T03:11:44;37.03;;;24.90;;
18716;SDS011;9487;50.892;6.906;2023-02-15T03:14:12;40.30;;;25.40;;
18716;SDS011;9487;50.892;6.906;2023-02-15T03:16:40;38.73;;;24.60;;
18716;SDS011;9487;50.892;6.906;2023-02-15T03:19:11;36.40;;;24.17;;
18716;SDS011;9487;50.892;6.906;2023-02-15T03:21:42;34.87;;;23.70;;
18716;SDS011;9487;50.892;6.906;2023-02-15T03:24:23;36.20;;;23.53;;
18716;SDS011;9487;50.892;6.906;2023-02-15T03:26:53;36.57;;;24.27;;
18716;SDS011;9487;50.892;6.906;2023-02-15T03:29:23;39.17;;;25.23;;
18716;SDS011;9487;50.892;6.906;2023-02-15T03:31:53;37.97;;;25.20;;
18716;SDS011;9487;50.892;6.906;2023-02-15T03:34:25;41.43;;;26.17;;
18716;SDS011;9487;50.892;6.906;2023-02-15T03:36:55;40.27;;;26.53;;
18716;SDS011;9487;50.892;6.906;2023-02-15T03:39:27;41.90;;;26.80;;
18716;SDS011;9487;50.892;6.906;2023-02-15T03:42:02;38.17;;;25.93;;
18716;SDS011;9487;50.892;6.906;2023-02-15T03:44:36;40.43;;;26.57;;
18716;SDS011;9487;50.892;6.906;2023-02-15T03:47:08;43.80;;;27.23;;
18716;SDS011;9487;50.892;6.906;2023-02-15T03:49:42;40.63;;;26.03;;
18716;SDS011;9487;50.892;6.906;2023-02-15T03:52:11;40.30;;;26.50;;
18716;SDS011;9487;50.892;6.906;2023-02-15T03:54:41;38.33;;;25.30;;
18716;SDS011;9487;50.892;6.906;2023-02-15T03:57:11;39.00;;;25.30;;
18716;SDS011;9487;50.892;6.906;2023-02-15T03:59:57;39.00;;;25.93;;
18716;SDS011;9487;50.892;6.906;2023-02-15T04:02:44;40.13;;;25.20;;
18716;SDS011;9487;50.892;6.906;2023-02-15T04:05:35;35.07;;;23.77;;
18716;SDS011;9487;50.892;6.906;2023-02-15T04:08:02;35.30;;;22.90;;
18716;SDS011;9487;50.892;6.906;2023-02-15T04:10:29;36.47;;;24.03;;
18716;SDS011;9487;50.892;6.906;2023-02-15T04:13:18;34.57;;;22.37;;
18716;SDS011;9487;50.892;6.906;2023-02-15T04:15:45;37.63;;;22.77;;
18716;SDS011;9487;50.892;6.906;2023-02-15T04:18:29;34.63;;;22.70;;
18716;SDS011;9487;50.892;6.906;2023-02-15T04:21:16;34.17;;;22.93;;
18716;SDS011;9487;50.892;6.906;2023-02-15T04:24:00;34.33;;;23.27;;
18716;SDS011;9487;50.892;6.906;2023-02-15T04:26:44;34.83;;;22.73;;
18716;SDS011;9487;50.892;6.906;2023-02-15T04:29:12;34.73;;;23.00;;
18716;SDS011;9487;50.892;6.906;2023-02-15T04:31:39;34.57;;;23.23;;
18716;SDS011;9487;50.892;6.906;2023-02-15T04:34:07;36.13;;;24.37;;
18716;SDS011;9487;50.892;6.906;2023-02-15T04:36:36;36.67;;;23.70;;
18716;SDS011;9487;50.892;6.906;2023-02-15T04:39:03;35.87;;;23.17;;
18716;SDS011;9487;50.892;6.906;2023-02-15T04:41:30;34.80;;;22.27;;
18716;SDS011;9487;50.892;6.906;2023-02-15T04:43:56;34.27;;;22.97;;
18716;SDS011;9487;50.892;6.906;2023-02-15T04:46:24;31.40;;;21.27;;
18716;SDS011;9487;50.892;6.906;2023-02-15T04:48:51;32.17;;;22.60;;
18716;SDS011;9487;50.892;6.906;2023-02-15T04:51:18;31.67;;;21.97;;
18716;SDS011;9487;50.892;6.906;2023-02-15T04:53:46;31.30;;;22.10;;
18716;SDS011;9487;50.892;6.906;2023-02-15T04:56:13;32.87;;;21.67;;
18716;SDS011;9487;50.892;6.906;2023-02-15T04:58:39;31.60;;;22.30;;
18716;SDS011;9487;50.892;6.906;2023-02-15T05:01:07;30.57;;;20.83;;
18716;SDS011;9487;50.892;6.906;2023-02-15T05:03:34;31.37;;;21.13;;
18716;SDS011;9487;50.892;6.906;2023-02-15T05:06:01;33.30;;;21.90;;
18716;SDS011;9487;50.892;6.906;2023-02-15T05:08:29;29.90;;;20.47;;
18716;SDS011;9487;50.892;6.906;2023-02-15T05:10:57;31.90;;;21.17;;
18716;SDS011;9487;50.892;6.906;2023-02-15T05:13:24;30.10;;;20.33;;
18716;SDS011;9487;50.892;6.906;2023-02-15T05:15:51;33.43;;;22.27;;
18716;SDS011;9487;50.892;6.906;2023-02-15T05:18:18;31.97;;;22.23;;
18716;SDS011;9487;50.892;6.906;2023-02-15T05:20:47;33.03;;;21.30;;
18716;SDS011;9487;50.892;6.906;2023-02-15T05:23:14;34.40;;;22.47;;
18716;SDS011;9487;50.892;6.906;2023-02-15T05:25:45;32.57;;;22.10;;
18716;SDS011;9487;50.892;6.906;2023-02-15T05:28:32;31.90;;;22.03;;
18716;SDS011;9487;50.892;6.906;2023-02-15T05:31:02;33.23;;;22.63;;
18716;SDS011;9487;50.892;6.906;2023-02-15T05:33:30;36.10;;;23.37;;
18716;SDS011;9487;50.892;6.906;2023-02-15T05:35:57;36.20;;;22.37;;
18716;SDS011;9487;50.892;6.906;2023-02-15T05:38:24;37.33;;;23.20;;
18716;SDS011;9487;50.892;6.906;2023-02-15T05:40:51;36.63;;;23.17;;
18716;SDS011;9487;50.892;6.906;2023-02-15T05:43:18;36.37;;;23.80;;
18716;SDS011;9487;50.892;6.906;2023-02-15T05:45:47;32.73;;;22.37;;
18716;SDS011;9487;50.892;6.906;2023-02-15T05:48:14;34.90;;;22.60;;
18716;SDS011;9487;50.892;6.906;2023-02-15T05:50:41;35.40;;;22.93;;
18716;SDS011;9487;50.892;6.906;2023-02-15T05:53:08;35.23;;;22.57;;
18716;SDS011;9487;50.892;6.906;2023-02-15T05:55:36;38.27;;;24.03;;
18716;SDS011;9487;50.892;6.906;2023-02-15T05:58:04;35.00;;;22.77;;
18716;SDS011;9487;50.892;6.906;2023-02-15T06:00:30;32.77;;;22.33;;
18716;SDS011;9487;50.892;6.906;2023-02-15T06:02:59;34.20;;;22.33;;
18716;SDS011;9487;50.892;6.906;2023-02-15T06:05:26;36.83;;;22.73;;
18716;SDS011;9487;50.892;6.906;2023-02-15T06:07:52;35.87;;;22.70;;
18716;SDS011;9487;50.892;6.906;2023-02-15T06:10:19;34.97;;;22.30;;
18716;SDS011;9487;50.892;6.906;2023-02-15T06:12:46;35.17;;;22.90;;
18716;SDS011;9487;50.892;6.906;2023-02-15T06:15:13;38.47;;;23.53;;
18716;SDS011;9487;50.892;6.906;2023-02-15T06:17:40;34.47;;;22.57;;
18716;SDS011;9487;50.892;6.906;2023-02-15T06:20:09;34.97;;;22.13;;
18716;SDS011;9487;50.892;6.906;2023-02-15T06:22:36;33.77;;;22.90;;
18716;SDS011;9487;50.892;6.906;2023-02-15T06:25:03;32.23;;;21.97;;
18716;SDS011;9487;50.892;6.906;2023-02-15T06:27:30;33.10;;;21.20;;
18716;SDS011;9487;50.892;6.906;2023-02-15T06:29:57;32.33;;;20.90;;
18716;SDS011;9487;50.892;6.906;2023-02-15T06:32:24;31.07;;;20.20;;
18716;SDS011;9487;50.892;6.906;2023-02-15T06:34:50;35.37;;;22.80;;
18716;SDS011;9487;50.892;6.906;2023-02-15T06:37:19;34.30;;;22.07;;
18716;SDS011;9487;50.892;6.906;2023-02-15T06:39:45;31.70;;;21.80;;
18716;SDS011;9487;50.892;6.906;2023-02-15T06:42:12;31.50;;;20.20;;
18716;SDS011;9487;50.892;6.906;2023-02-15T06:44:39;32.13;;;20.90;;
18716;SDS011;9487;50.892;6.906;2023-02-15T06:47:06;34.77;;;21.87;;
18716;SDS011;9487;50.892;6.906;2023-02-15T06:49:32;32.07;;;21.53;;
18716;SDS011;9487;50.892;6.906;2023-02-15T06:51:59;30.00;;;20.17;;
18716;SDS011;9487;50.892;6.906;2023-02-15T06:54:27;31.97;;;20.53;;
18716;SDS011;9487;50.892;6.906;2023-02-15T06:56:54;34.80;;;22.00;;
18716;SDS011;9487;50.892;6.906;2023-02-15T06:59:21;29.63;;;20.30;;
18716;SDS011;9487;50.892;6.906;2023-02-15T07:01:48;30.60;;;19.70;;
18716;SDS011;9487;50.892;6.906;2023-02-15T07:04:15;27.63;;;18.77;;
18716;SDS011;9487;50.892;6.906;2023-02-15T07:06:42;27.87;;;19.63;;
18716;SDS011;9487;50.892;6.906;2023-02-15T07:09:08;29.53;;;19.10;;
18716;SDS011;9487;50.892;6.906;2023-02-15T07:11:37;25.77;;;19.00;;
18716;SDS011;9487;50.892;6.906;2023-02-15T07:14:21;28.47;;;19.17;;
18716;SDS011;9487;50.892;6.906;2023-02-15T07:16:48;30.13;;;20.40;;
18716;SDS011;9487;50.892;6.906;2023-02-15T07:19:15;28.80;;;20.00;;
18716;SDS011;9487;50.892;6.906;2023-02-15T07:21:42;28.60;;;19.13;;
18716;SDS011;9487;50.892;6.906;2023-02-15T07:24:10;27.70;;;19.30;;
18716;SDS011;9487;50.892;6.906;2023-02-15T07:26:38;27.03;;;19.07;;
18716;SDS011;9487;50.892;6.906;2023-02-15T07:29:05;29.13;;;19.83;;
18716;SDS011;9487;50.892;6.906;2023-02-15T07:31:32;29.47;;;19.00;;
18716;SDS011;9487;50.892;6.906;2023-02-15T07:33:59;28.60;;;19.70;;
18716;SDS011;9487;50.892;6.906;2023-02-15T07:36:26;27.83;;;18.87;;
18716;SDS011;9487;50.892;6.906;2023-02-15T07:38:52;27.50;;;18.13;;
18716;SDS011;9487;50.892;6.906;2023-02-15T07:41:19;27.17;;;18.00;;
18716;SDS011;9487;50.892;6.906;2023-02-15T07:43:47;28.33;;;19.33;;
18716;SDS011;9487;50.892;6.906;2023-02-15T07:46:15;25.07;;;18.80;;
18716;SDS011;9487;50.892;6.906;2023-02-15T07:48:43;25.70;;;17.83;;
18716;SDS011;9487;50.892;6.906;2023-02-15T07:51:10;24.20;;;18.40;;
18716;SDS011;9487;50.892;6.906;2023-02-15T07:53:38;25.97;;;17.77;;
18716;SDS011;9487;50.892;6.906;2023-02-15T07:56:06;24.50;;;17.73;;
18716;SDS011;9487;50.892;6.906;2023-02-15T07:58:35;26.97;;;18.97;;
18716;SDS011;9487;50.892;6.906;2023-02-15T08:01:18;24.47;;;17.10;;
18716;SDS011;9487;50.892;6.906;2023-02-15T08:03:47;24.20;;;17.47;;
18716;SDS011;9487;50.892;6.906;2023-02-15T08:06:14;24.80;;;18.40;;
18716;SDS011;9487;50.892;6.906;2023-02-15T08:08:41;25.27;;;18.10;;
18716;SDS011;9487;50.892;6.906;2023-02-15T08:11:14;24.03;;;18.13;;
18716;SDS011;9487;50.892;6.906;2023-02-15T08:13:54;28.07;;;18.00;;
18716;SDS011;9487;50.892;6.906;2023-02-15T08:16:26;24.03;;;18.00;;
18716;SDS011;9487;50.892;6.906;2023-02-15T08:18:55;23.50;;;17.73;;
18716;SDS011;9487;50.892;6.906;2023-02-15T08:21:22;22.10;;;17.50;;
18716;SDS011;9487;50.892;6.906;2023-02-15T08:23:51;26.13;;;16.83;;
18716;SDS011;9487;50.892;6.906;2023-02-15T08:26:18;24.07;;;17.50;;
18716;SDS011;9487;50.892;6.906;2023-02-15T08:28:45;25.63;;;18.50;;
18716;SDS011;9487;50.892;6.906;2023-02-15T08:31:13;26.60;;;18.67;;
18716;SDS011;9487;50.892;6.906;2023-02-15T08:33:44;24.33;;;17.70;;
18716;SDS011;9487;50.892;6.906;2023-02-15T08:36:13;24.73;;;17.53;;
18716;SDS011;9487;50.892;6.906;2023-02-15T08:38:41;21.87;;;16.93;;
18716;SDS011;9487;50.892;6.906;2023-02-15T08:41:09;24.70;;;18.60;;
18716;SDS011;9487;50.892;6.906;2023-02-15T08:43:37;23.43;;;18.03;;
18716;SDS011;9487;50.892;6.906;2023-02-15T08:46:05;25.83;;;17.53;;
18716;SDS011;9487;50.892;6.906;2023-02-15T08:48:32;23.63;;;17.80;;
18716;SDS011;9487;50.892;6.906;2023-02-15T08:51:03;22.30;;;17.10;;
18716;SDS011;9487;50.892;6.906;2023-02-15T08:53:32;22.80;;;16.83;;
18716;SDS011;9487;50.892;6.906;2023-02-15T08:55:59;20.93;;;16.87;;
18716;SDS011;9487;50.892;6.906;2023-02-15T08:58:26;21.13;;;16.80;;
18716;SDS011;9487;50.892;6.906;2023-02-15T09:00:54;22.43;;;17.47;;
18716;SDS011;9487;50.892;6.906;2023-02-15T09:03:20;21.17;;;16.63;;
18716;SDS011;9487;50.892;6.906;2023-02-15T09:05:47;22.03;;;17.53;;
18716;SDS011;9487;50.892;6.906;2023-02-15T09:08:15;20.97;;;17.10;;
18716;SDS011;9487;50.892;6.906;2023-02-15T09:10:42;20.47;;;16.37;;
18716;SDS011;9487;50.892;6.906;2023-02-15T09:13:09;22.23;;;17.10;;
18716;SDS011;9487;50.892;6.906;2023-02-15T09:15:36;23.90;;;17.10;;
18716;SDS011;9487;50.892;6.906;2023-02-15T09:18:02;22.50;;;17.00;;
18716;SDS011;9487;50.892;6.906;2023-02-15T09:20:31;21.73;;;16.40;;
18716;SDS011;9487;50.892;6.906;2023-02-15T09:23:00;20.63;;;16.77;;
18716;SDS011;9487;50.892;6.906;2023-02-15T09:25:29;20.40;;;15.60;;
18716;SDS011;9487;50.892;6.906;2023-02-15T09:27:55;21.20;;;15.90;;
18716;SDS011;9487;50.892;6.906;2023-02-15T09:30:22;20.37;;;16.30;;
18716;SDS011;9487;50.892;6.906;2023-02-15T09:32:49;21.33;;;16.77;;
18716;SDS011;9487;50.892;6.906;2023-02-15T09:35:16;20.77;;;16.73;;
18716;SDS011;9487;50.892;6.906;2023-02-15T09:37:43;19.10;;;15.97;;
18716;SDS011;9487;50.892;6.906;2023-02-15T09:40:11;22.50;;;16.33;;
18716;SDS011;9487;50.892;6.906;2023-02-15T09:42:49;20.97;;;15.60;;
18716;SDS011;9487;50.892;6.906;2023-02-15T09:45:38;20.50;;;15.97;;
18716;SDS011;9487;50.892;6.906;2023-02-15T09:48:29;19.80;;;16.47;;
18716;SDS011;9487;50.892;6.906;2023-02-15T09:51:13;20.13;;;16.43;;
18716;SDS011;9487;50.892;6.906;2023-02-15T09:53:54;19.17;;;15.97;;
18716;SDS011;9487;50.892;6.906;2023-02-15T09:56:42;22.70;;;16.17;;
18716;SDS011;9487;50.892;6.906;2023-02-15T09:59:19;19.00;;;15.83;;
18716;SDS011;9487;50.892;6.906;2023-02-15T10:01:55;20.77;;;15.93;;
18716;SDS011;9487;50.892;6.906;2023-02-15T10:04:36;20.33;;;15.23;;
18716;SDS011;9487;50.892;6.906;2023-02-15T10:07:22;19.90;;;15.07;;
18716;SDS011;9487;50.892;6.906;2023-02-15T10:10:14;19.43;;;15.17;;
18716;SDS011;9487;50.892;6.906;2023-02-15T10:12:56;18.60;;;16.30;;
18716;SDS011;9487;50.892;6.906;2023-02-15T10:18:35;17.63;;;15.13;;
18716;SDS011;9487;50.892;6.906;2023-02-15T10:21:12;17.60;;;14.90;;
18716;SDS011;9487;50.892;6.906;2023-02-15T10:23:58;16.67;;;14.50;;
18716;SDS011;9487;50.892;6.906;2023-02-15T10:26:42;19.87;;;15.47;;
18716;SDS011;9487;50.892;6.906;2023-02-15T10:29:12;18.77;;;14.33;;
18716;SDS011;9487;50.892;6.906;2023-02-15T10:31:54;18.67;;;15.40;;
18716;SDS011;9487;50.892;6.906;2023-02-15T10:34:30;18.87;;;15.60;;
18716;SDS011;9487;50.892;6.906;2023-02-15T10:37:11;17.40;;;15.50;;
18716;SDS011;9487;50.892;6.906;2023-02-15T10:40:00;17.60;;;14.93;;
18716;SDS011;9487;50.892;6.906;2023-02-15T10:42:36;18.13;;;14.67;;
18716;SDS011;9487;50.892;6.906;2023-02-15T10:45:17;21.47;;;15.60;;
18716;SDS011;9487;50.892;6.906;2023-02-15T10:47:59;19.03;;;15.23;;
18716;SDS011;9487;50.892;6.906;2023-02-15T10:50:40;18.07;;;15.47;;
18716;SDS011;9487;50.892;6.906;2023-02-15T10:53:20;19.27;;;14.80;;
18716;SDS011;9487;50.892;6.906;2023-02-15T10:56:03;18.23;;;15.23;;
18716;SDS011;9487;50.892;6.906;2023-02-15T10:58:41;18.83;;;15.10;;
18716;SDS011;9487;50.892;6.906;2023-02-15T11:01:18;18.53;;;14.47;;
18716;SDS011;9487;50.892;6.906;2023-02-15T11:03:58;16.83;;;13.67;;
18716;SDS011;9487;50.892;6.906;2023-02-15T11:06:36;17.87;;;14.27;;
18716;SDS011;9487;50.892;6.906;2023-02-15T11:09:09;18.03;;;14.20;;
18716;SDS011;9487;50.892;6.906;2023-02-15T11:11:40;17.17;;;14.57;;
18716;SDS011;9487;50.892;6.906;2023-02-15T11:14:13;17.03;;;14.53;;
18716;SDS011;9487;50.892;6.906;2023-02-15T11:16:43;15.40;;;13.73;;
18716;SDS011;9487;50.892;6.906;2023-02-15T11:19:16;20.00;;;14.90;;
18716;SDS011;9487;50.892;6.906;2023-02-15T11:21:48;18.50;;;14.77;;
18716;SDS011;9487;50.892;6.906;2023-02-15T11:24:19;15.10;;;13.40;;
18716;SDS011;9487;50.892;6.906;2023-02-15T11:26:48;17.20;;;14.30;;
18716;SDS011;9487;50.892;6.906;2023-02-15T11:29:21;17.30;;;14.70;;
18716;SDS011;9487;50.892;6.906;2023-02-15T11:31:53;17.60;;;14.20;;
18716;SDS011;9487;50.892;6.906;2023-02-15T11:34:23;17.30;;;14.50;;
18716;SDS011;9487;50.892;6.906;2023-02-15T11:36:55;18.87;;;15.00;;
18716;SDS011;9487;50.892;6.906;2023-02-15T11:39:27;19.17;;;15.40;;
18716;SDS011;9487;50.892;6.906;2023-02-15T11:41:57;21.13;;;15.43;;
18716;SDS011;9487;50.892;6.906;2023-02-15T11:44:31;17.70;;;15.07;;
18716;SDS011;9487;50.892;6.906;2023-02-15T11:47:01;17.93;;;15.43;;
18716;SDS011;9487;50.892;6.906;2023-02-15T11:49:30;18.83;;;14.70;;
18716;SDS011;9487;50.892;6.906;2023-02-15T11:51:59;16.90;;;14.53;;
18716;SDS011;9487;50.892;6.906;2023-02-15T11:54:29;17.50;;;14.20;;
18716;SDS011;9487;50.892;6.906;2023-02-15T11:56:59;16.83;;;14.33;;
18716;SDS011;9487;50.892;6.906;2023-02-15T11:59:31;17.43;;;15.10;;
18716;SDS011;9487;50.892;6.906;2023-02-15T12:02:01;15.60;;;13.93;;
18716;SDS011;9487;50.892;6.906;2023-02-15T12:04:31;18.73;;;15.37;;
18716;SDS011;9487;50.892;6.906;2023-02-15T12:07:05;16.93;;;14.60;;
18716;SDS011;9487;50.892;6.906;2023-02-15T12:09:42;16.20;;;14.33;;
18716;SDS011;9487;50.892;6.906;2023-02-15T12:12:21;20.13;;;13.97;;
18716;SDS011;9487;50.892;6.906;2023-02-15T12:14:51;16.80;;;14.87;;
18716;SDS011;9487;50.892;6.906;2023-02-15T12:17:20;19.17;;;14.73;;
18716;SDS011;9487;50.892;6.906;2023-02-15T12:19:50;16.93;;;14.83;;
18716;SDS011;9487;50.892;6.906;2023-02-15T12:22:22;17.93;;;15.37;;
18716;SDS011;9487;50.892;6.906;2023-02-15T12:24:52;16.10;;;14.40;;
18716;SDS011;9487;50.892;6.906;2023-02-15T12:27:21;17.00;;;14.07;;
18716;SDS011;9487;50.892;6.906;2023-02-15T12:29:53;15.43;;;13.53;;
18716;SDS011;9487;50.892;6.906;2023-02-15T12:32:25;16.43;;;14.60;;
18716;SDS011;9487;50.892;6.906;2023-02-15T12:34:59;16.40;;;14.67;;
18716;SDS011;9487;50.892;6.906;2023-02-15T12:37:28;16.53;;;14.27;;
18716;SDS011;9487;50.892;6.906;2023-02-15T12:39:59;16.33;;;14.23;;
18716;SDS011;9487;50.892;6.906;2023-02-15T12:42:28;16.23;;;13.97;;
18716;SDS011;9487;50.892;6.906;2023-02-15T12:45:19;17.67;;;14.13;;
18716;SDS011;9487;50.892;6.906;2023-02-15T12:48:07;14.63;;;13.07;;
18716;SDS011;9487;50.892;6.906;2023-02-15T12:50:41;14.50;;;13.00;;
18716;SDS011;9487;50.892;6.906;2023-02-15T12:53:12;17.23;;;13.87;;
18716;SDS011;9487;50.892;6.906;2023-02-15T12:55:49;16.47;;;13.77;;
18716;SDS011;9487;50.892;6.906;2023-02-15T12:58:17;17.93;;;14.20;;
18716;SDS011;9487;50.892;6.906;2023-02-15T13:00:47;17.97;;;14.60;;
18716;SDS011;9487;50.892;6.906;2023-02-15T13:03:18;17.53;;;14.50;;
18716;SDS011;9487;50.892;6.906;2023-02-15T13:05:49;15.87;;;13.57;;
18716;SDS011;9487;50.892;6.906;2023-02-15T13:08:18;19.00;;;13.33;;
18716;SDS011;9487;50.892;6.906;2023-02-15T13:10:54;15.97;;;13.67;;
18716;SDS011;9487;50.892;6.906;2023-02-15T13:13:24;18.63;;;14.17;;
18716;SDS011;9487;50.892;6.906;2023-02-15T13:15:54;15.40;;;13.80;;
18716;SDS011;9487;50.892;6.906;2023-02-15T13:18:28;17.17;;;14.33;;
18716;SDS011;9487;50.892;6.906;2023-02-15T13:20:59;16.17;;;13.77;;
18716;SDS011;9487;50.892;6.906;2023-02-15T13:23:37;16.37;;;13.80;;
18716;SDS011;9487;50.892;6.906;2023-02-15T13:26:09;16.70;;;13.67;;
18716;SDS011;9487;50.892;6.906;2023-02-15T13:28:41;16.43;;;13.57;;
18716;SDS011;9487;50.892;6.906;2023-02-15T13:31:12;16.07;;;13.83;;
18716;SDS011;9487;50.892;6.906;2023-02-15T13:33:41;18.00;;;14.40;;
18716;SDS011;9487;50.892;6.906;2023-02-15T13:36:13;15.57;;;13.63;;
18716;SDS011;9487;50.892;6.906;2023-02-15T13:38:56;16.97;;;13.90;;
18716;SDS011;9487;50.892;6.906;2023-02-15T13:41:31;15.57;;;13.03;;
18716;SDS011;9487;50.892;6.906;2023-02-15T13:44:03;15.90;;;13.73;;
18716;SDS011;9487;50.892;6.906;2023-02-15T13:46:50;17.07;;;13.77;;
18716;SDS011;9487;50.892;6.906;2023-02-15T13:49:29;14.90;;;13.33;;
18716;SDS011;9487;50.892;6.906;2023-02-15T13:52:11;17.60;;;13.97;;
18716;SDS011;9487;50.892;6.906;2023-02-15T13:54:53;14.57;;;13.07;;
18716;SDS011;9487;50.892;6.906;2023-02-15T13:57:54;15.27;;;13.33;;
18716;SDS011;9487;50.892;6.906;2023-02-15T14:00:34;15.00;;;12.57;;
18716;SDS011;9487;50.892;6.906;2023-02-15T14:06:28;16.33;;;13.50;;
18716;SDS011;9487;50.892;6.906;2023-02-15T14:09:20;16.07;;;13.67;;
18716;SDS011;9487;50.892;6.906;2023-02-15T14:11:55;16.77;;;13.50;;
18716;SDS011;9487;50.892;6.906;2023-02-15T14:14:47;14.70;;;13.20;;
18716;SDS011;9487;50.892;6.906;2023-02-15T14:17:37;15.87;;;13.37;;
18716;SDS011;9487;50.892;6.906;2023-02-15T14:20:15;15.17;;;13.53;;
18716;SDS011;9487;50.892;6.906;2023-02-15T14:22:48;16.00;;;13.50;;
18716;SDS011;9487;50.892;6.906;2023-02-15T14:25:25;14.97;;;13.23;;
18716;SDS011;9487;50.892;6.906;2023-02-15T14:27:59;16.40;;;13.37;;
18716;SDS011;9487;50.892;6.906;2023-02-15T14:30:32;16.37;;;13.40;;
18716;SDS011;9487;50.892;6.906;2023-02-15T14:33:04;17.23;;;13.20;;
18716;SDS011;9487;50.892;6.906;2023-02-15T14:35:34;16.07;;;14.07;;
18716;SDS011;9487;50.892;6.906;2023-02-15T14:38:03;15.10;;;13.50;;
18716;SDS011;9487;50.892;6.906;2023-02-15T14:40:42;14.67;;;12.80;;
18716;SDS011;9487;50.892;6.906;2023-02-15T14:43:31;16.57;;;14.20;;
18716;SDS011;9487;50.892;6.906;2023-02-15T14:46:08;16.17;;;13.10;;
18716;SDS011;9487;50.892;6.906;2023-02-15T14:48:43;13.20;;;11.80;;
18716;SDS011;9487;50.892;6.906;2023-02-15T14:54:52;17.07;;;13.83;;
18716;SDS011;9487;50.892;6.906;2023-02-15T14:57:33;15.80;;;14.07;;
18716;SDS011;9487;50.892;6.906;2023-02-15T15:00:01;16.03;;;13.53;;
18716;SDS011;9487;50.892;6.906;2023-02-15T15:02:45;15.63;;;13.50;;
18716;SDS011;9487;50.892;6.906;2023-02-15T15:05:16;17.03;;;14.03;;
18716;SDS011;9487;50.892;6.906;2023-02-15T15:07:46;15.77;;;13.63;;
18716;SDS011;9487;50.892;6.906;2023-02-15T15:10:34;14.07;;;12.57;;
18716;SDS011;9487;50.892;6.906;2023-02-15T15:18:55;17.53;;;13.73;;